createdAt,value
2023-01-01T00:00:42.327Z,14.3
2023-01-01T00:01:45.437Z,14.4
2023-01-01T00:02:48.891Z,14.4
2023-01-01T00:03:52.387Z,14.4
2023-01-01T00:04:56.214Z,14.4
2023-01-01T00:05:59.335Z,14.4
2023-01-01T00:07:02.139Z,14.4
2023-01-01T00:08:07.250Z,14.4
2023-01-01T00:09:10.057Z,14.4
2023-01-01T00:10:13.164Z,14.4
2023-01-01T00:11:15.681Z,14.4
2023-01-01T00:12:18.746Z,14.4
2023-01-01T00:13:21.804Z,14.5
2023-01-01T00:14:24.601Z,14.5
2023-01-01T00:15:27.359Z,14.4
2023-01-01T00:16:30.524Z,14.4
2023-01-01T00:17:33.803Z,14.5
2023-01-01T00:18:37.187Z,14.5
2023-01-01T00:19:40.724Z,14.5
2023-01-01T00:20:44.048Z,14.5
2023-01-01T00:21:47.709Z,14.5
2023-01-01T00:22:58.900Z,14.5
2023-01-01T00:24:02.231Z,14.5
2023-01-01T00:25:05.046Z,14.4
2023-01-01T00:26:07.571Z,14.5
2023-01-01T00:27:10.600Z,14.4
2023-01-01T00:28:13.403Z,14.4
2023-01-01T00:29:15.578Z,14.4
2023-01-01T00:30:18.079Z,14.4
2023-01-01T00:31:21.865Z,14.4
2023-01-01T00:32:25.675Z,14.4
2023-01-01T00:33:28.796Z,14.4
2023-01-01T00:34:32.072Z,14.4
2023-01-01T00:35:35.589Z,14.5
2023-01-01T00:36:39.654Z,14.5
2023-01-01T00:37:48.532Z,14.5
2023-01-01T00:38:52.015Z,14.5
2023-01-01T00:39:55.332Z,14.5
2023-01-01T00:40:58.705Z,14.5
2023-01-01T00:42:02.116Z,14.5
2023-01-01T00:43:04.357Z,14.5
2023-01-01T00:44:07.833Z,14.5
2023-01-01T00:45:22.937Z,14.5
2023-01-01T00:46:26.856Z,14.5
2023-01-01T00:47:30.130Z,14.5
2023-01-01T00:48:32.884Z,14.5
2023-01-01T00:49:36.274Z,14.5
2023-01-01T00:50:40.186Z,14.6
2023-01-01T00:51:43.700Z,14.6
2023-01-01T00:52:47.064Z,14.6
2023-01-01T00:53:51.088Z,14.6
2023-01-01T00:54:54.719Z,14.6
2023-01-01T00:55:58.960Z,14.6
2023-01-01T00:57:01.743Z,14.6
2023-01-01T00:58:04.654Z,14.6
2023-01-01T00:59:08.310Z,14.7
2023-01-01T01:00:11.653Z,14.7
2023-01-01T01:01:14.932Z,14.7
2023-01-01T01:02:19.187Z,14.7
2023-01-01T01:03:22.824Z,14.6
2023-01-01T01:04:25.658Z,14.6
2023-01-01T01:05:28.423Z,14.7
2023-01-01T01:06:31.936Z,14.6
2023-01-01T01:07:36.186Z,14.6
2023-01-01T01:08:40.226Z,14.6
2023-01-01T01:09:43.988Z,14.6
2023-01-01T01:10:47.179Z,14.6
2023-01-01T01:11:49.939Z,14.7
2023-01-01T01:12:53.364Z,14.7
2023-01-01T01:13:57.455Z,14.7
2023-01-01T01:14:59.935Z,14.7
2023-01-01T01:16:03.815Z,14.7
2023-01-01T01:17:06.521Z,14.7
2023-01-01T01:18:09.328Z,14.7
2023-01-01T01:19:13.062Z,14.7
2023-01-01T01:20:16.077Z,14.7
2023-01-01T01:21:19.452Z,14.7
2023-01-01T01:22:30.821Z,14.7
2023-01-01T01:23:34.606Z,14.7
2023-01-01T01:24:37.449Z,14.7
2023-01-01T01:25:41.116Z,14.7
2023-01-01T01:26:44.112Z,14.7
2023-01-01T01:27:46.821Z,14.7
2023-01-01T01:28:51.329Z,14.7
2023-01-01T01:29:53.943Z,14.7
2023-01-01T01:30:57.194Z,14.7
2023-01-01T01:32:00.341Z,14.7
2023-01-01T01:33:03.989Z,14.7
2023-01-01T01:34:21.255Z,14.7
2023-01-01T01:35:31.287Z,14.8
2023-01-01T01:36:34.136Z,14.8
2023-01-01T01:37:37.321Z,14.8
2023-01-01T01:38:41.195Z,14.8
2023-01-01T01:39:47.873Z,14.8
2023-01-01T01:40:56.624Z,14.8
2023-01-01T01:41:59.620Z,14.8
2023-01-01T01:43:02.090Z,14.7
2023-01-01T01:44:05.183Z,14.7
2023-01-01T01:45:08.304Z,14.8
2023-01-01T01:46:11.571Z,14.8
2023-01-01T01:47:15.312Z,14.8
2023-01-01T01:48:18.979Z,14.8
2023-01-01T01:49:23.056Z,14.8
2023-01-01T01:50:26.099Z,14.8
2023-01-01T01:51:29.174Z,14.8
2023-01-01T01:52:32.074Z,14.8
2023-01-01T01:53:35.821Z,14.8
2023-01-01T01:54:39.369Z,14.8
2023-01-01T01:55:42.758Z,14.8
2023-01-01T01:56:45.782Z,14.8
2023-01-01T01:57:49.223Z,14.8
2023-01-01T01:58:52.642Z,14.8
2023-01-01T01:59:55.640Z,14.8
2023-01-01T02:00:59.368Z,14.8
2023-01-01T02:02:03.807Z,14.8
2023-01-01T02:03:07.833Z,14.8
2023-01-01T02:04:10.640Z,14.9
2023-01-01T02:05:13.547Z,14.8
2023-01-01T02:06:16.353Z,14.9
2023-01-01T02:07:19.155Z,14.8
2023-01-01T02:08:22.885Z,14.9
2023-01-01T02:09:26.706Z,14.8
2023-01-01T02:10:30.491Z,14.8
2023-01-01T02:11:33.503Z,14.8
2023-01-01T02:12:36.648Z,14.8
2023-01-01T02:13:38.894Z,14.8
2023-01-01T02:14:42.308Z,14.8
2023-01-01T02:15:45.609Z,14.8
2023-01-01T02:16:48.126Z,14.8
2023-01-01T02:17:51.280Z,14.8
2023-01-01T02:18:54.982Z,14.8
2023-01-01T02:19:57.972Z,14.8
2023-01-01T02:21:01.063Z,14.8
2023-01-01T02:22:03.852Z,14.8
2023-01-01T02:23:07.586Z,14.8
2023-01-01T02:24:10.350Z,14.8
2023-01-01T02:25:14.206Z,14.8
2023-01-01T02:26:17.950Z,14.8
2023-01-01T02:27:21.085Z,14.7
2023-01-01T02:28:23.823Z,14.8
2023-01-01T02:29:26.620Z,14.8
2023-01-01T02:30:29.899Z,14.8
2023-01-01T02:31:33.351Z,14.8
2023-01-01T02:32:36.854Z,14.8
2023-01-01T02:33:39.875Z,14.8
2023-01-01T02:34:43.611Z,14.8
2023-01-01T02:35:46.639Z,14.8
2023-01-01T02:36:50.096Z,14.9
2023-01-01T02:37:52.821Z,14.9
2023-01-01T02:38:55.926Z,14.9
2023-01-01T02:39:59.629Z,14.9
2023-01-01T02:41:03.059Z,14.9
2023-01-01T02:42:06.551Z,14.9
2023-01-01T02:43:10.205Z,14.9
2023-01-01T02:44:13.735Z,14.9
2023-01-01T02:45:16.722Z,14.9
2023-01-01T02:47:21.766Z,14.9
2023-01-01T02:48:24.640Z,15
2023-01-01T02:49:27.975Z,15
2023-01-01T02:50:30.517Z,14.9
2023-01-01T02:51:33.603Z,14.9
2023-01-01T02:52:36.734Z,14.9
2023-01-01T02:53:40.177Z,14.9
2023-01-01T02:54:42.677Z,14.9
2023-01-01T02:55:45.416Z,15
2023-01-01T02:56:48.877Z,15
2023-01-01T02:57:52.354Z,14.9
2023-01-01T02:58:55.104Z,14.9
2023-01-01T02:59:58.118Z,14.9
2023-01-01T03:01:02.102Z,14.9
2023-01-01T03:02:06.408Z,14.9
2023-01-01T03:03:09.306Z,14.9
2023-01-01T03:04:12.407Z,14.9
2023-01-01T03:05:15.785Z,14.9
2023-01-01T03:06:18.586Z,15
2023-01-01T03:07:21.591Z,14.9
2023-01-01T03:08:25.038Z,15
2023-01-01T03:09:27.853Z,15
2023-01-01T03:10:29.849Z,15
2023-01-01T03:11:32.630Z,15
2023-01-01T03:12:35.713Z,15
2023-01-01T03:13:39.452Z,14.9
2023-01-01T03:14:42.579Z,14.9
2023-01-01T03:15:46.498Z,15
2023-01-01T03:16:49.588Z,15
2023-01-01T03:17:52.078Z,15
2023-01-01T03:18:54.794Z,15
2023-01-01T03:19:58.066Z,15
2023-01-01T03:21:00.882Z,15
2023-01-01T03:22:04.343Z,15
2023-01-01T03:23:07.758Z,15
2023-01-01T03:24:10.818Z,15
2023-01-01T03:25:13.899Z,15
2023-01-01T03:26:17.634Z,15
2023-01-01T03:27:20.445Z,15
2023-01-01T03:28:23.575Z,15.1
2023-01-01T03:29:27.071Z,15
2023-01-01T03:30:30.154Z,15.1
2023-01-01T03:31:33.489Z,15
2023-01-01T03:32:36.285Z,14.9
2023-01-01T03:33:39.624Z,14.9
2023-01-01T03:34:43.277Z,15
2023-01-01T03:35:47.358Z,14.9
2023-01-01T03:36:50.983Z,15
2023-01-01T03:37:53.847Z,14.9
2023-01-01T03:38:56.096Z,14.9
2023-01-01T03:39:59.591Z,14.9
2023-01-01T03:41:03.272Z,15
2023-01-01T03:42:06.395Z,15
2023-01-01T03:43:09.745Z,15
2023-01-01T03:44:13.196Z,15
2023-01-01T03:45:16.984Z,15
2023-01-01T03:46:20.069Z,14.9
2023-01-01T03:47:22.939Z,14.9
2023-01-01T03:48:26.008Z,14.8
2023-01-01T03:49:28.523Z,14.8
2023-01-01T03:50:31.055Z,14.8
2023-01-01T03:51:34.708Z,14.7
2023-01-01T03:52:37.597Z,14.7
2023-01-01T03:53:41.235Z,14.7
2023-01-01T03:54:44.627Z,14.6
2023-01-01T03:55:48.321Z,14.6
2023-01-01T03:56:51.102Z,14.6
2023-01-01T03:57:53.992Z,14.6
2023-01-01T03:58:57.298Z,14.5
2023-01-01T04:00:01.190Z,14.5
2023-01-01T04:01:05.656Z,14.4
2023-01-01T04:02:09.148Z,14.5
2023-01-01T04:03:12.722Z,14.4
2023-01-01T04:04:16.099Z,14.4
2023-01-01T04:05:18.223Z,14.4
2023-01-01T04:06:21.367Z,14.4
2023-01-01T04:07:24.149Z,14.4
2023-01-01T04:08:26.967Z,14.4
2023-01-01T04:09:30.189Z,14.4
2023-01-01T04:10:33.207Z,14.3
2023-01-01T04:11:36.857Z,14.3
2023-01-01T04:12:39.610Z,14.4
2023-01-01T04:13:42.383Z,14.4
2023-01-01T04:14:44.824Z,14.4
2023-01-01T04:15:48.892Z,14.4
2023-01-01T04:16:53.087Z,14.4
2023-01-01T04:17:55.920Z,14.4
2023-01-01T04:18:59.667Z,14.3
2023-01-01T04:20:02.887Z,14.3
2023-01-01T04:21:06.509Z,14.3
2023-01-01T04:22:09.540Z,14.3
2023-01-01T04:23:12.425Z,14.3
2023-01-01T04:24:16.174Z,14.3
2023-01-01T04:25:18.816Z,14.3
2023-01-01T04:26:22.516Z,14.3
2023-01-01T04:27:26.130Z,14.3
2023-01-01T04:28:29.601Z,14.3
2023-01-01T04:29:32.802Z,14.4
2023-01-01T04:31:37.696Z,14.4
2023-01-01T04:32:41.485Z,14.4
2023-01-01T04:33:45.130Z,14.4
2023-01-01T04:34:48.421Z,14.4
2023-01-01T04:35:50.885Z,14.5
2023-01-01T04:36:53.878Z,14.5
2023-01-01T04:37:56.793Z,14.4
2023-01-01T04:39:00.511Z,14.4
2023-01-01T04:40:03.282Z,14.5
2023-01-01T04:41:06.493Z,14.5
2023-01-01T04:42:09.562Z,14.5
2023-01-01T04:43:13.015Z,14.4
2023-01-01T04:44:15.811Z,14.4
2023-01-01T04:45:18.877Z,14.4
2023-01-01T04:46:21.304Z,14.4
2023-01-01T04:47:24.815Z,14.4
2023-01-01T04:48:28.750Z,14.3
2023-01-01T04:49:31.363Z,14.3
2023-01-01T04:50:34.453Z,14.3
2023-01-01T04:51:37.843Z,14.3
2023-01-01T04:52:41.560Z,14.2
2023-01-01T04:53:45.010Z,14.3
2023-01-01T04:54:48.001Z,14.2
2023-01-01T04:55:50.659Z,14.2
2023-01-01T04:56:53.082Z,14.2
2023-01-01T04:57:55.663Z,14.2
2023-01-01T04:58:58.645Z,14.1
2023-01-01T05:00:01.876Z,14.2
2023-01-01T05:01:06.264Z,14.2
2023-01-01T05:02:10.397Z,14.2
2023-01-01T05:03:14.211Z,14.2
2023-01-01T05:04:18.298Z,14.2
2023-01-01T05:05:20.735Z,14.2
2023-01-01T05:06:24.478Z,14.2
2023-01-01T05:07:27.936Z,14.2
2023-01-01T05:08:30.645Z,14.2
2023-01-01T05:09:34.098Z,14.2
2023-01-01T05:10:37.203Z,14.2
2023-01-01T05:11:40.615Z,14.2
2023-01-01T05:12:43.320Z,14.3
2023-01-01T05:13:46.597Z,14.2
2023-01-01T05:14:50.237Z,14.2
2023-01-01T05:15:53.225Z,14.2
2023-01-01T05:16:56.726Z,14.2
2023-01-01T05:17:59.750Z,14.2
2023-01-01T05:19:02.919Z,14.2
2023-01-01T05:20:07.049Z,14.2
2023-01-01T05:21:10.673Z,14.2
2023-01-01T05:22:13.706Z,14.2
2023-01-01T05:23:16.202Z,14.2
2023-01-01T05:24:19.067Z,14.3
2023-01-01T05:25:21.508Z,14.3
2023-01-01T05:26:24.504Z,14.3
2023-01-01T05:27:27.306Z,14.3
2023-01-01T05:28:30.328Z,14.3
2023-01-01T05:29:32.863Z,14.3
2023-01-01T05:30:35.929Z,14.3
2023-01-01T05:31:39.135Z,14.3
2023-01-01T05:32:42.405Z,14.3
2023-01-01T05:33:45.436Z,14.3
2023-01-01T05:34:48.802Z,14.3
2023-01-01T05:35:52.873Z,14.3
2023-01-01T05:36:56.240Z,14.3
2023-01-01T05:37:59.500Z,14.3
2023-01-01T05:39:02.564Z,14.3
2023-01-01T05:40:05.715Z,14.3
2023-01-01T05:41:09.118Z,14.3
2023-01-01T05:42:11.836Z,14.3
2023-01-01T05:43:14.702Z,14.3
2023-01-01T05:44:17.703Z,14.3
2023-01-01T05:45:20.436Z,14.3
2023-01-01T05:46:24.557Z,14.3
2023-01-01T05:47:31.087Z,14.2
2023-01-01T05:48:33.940Z,14.2
2023-01-01T05:49:37.367Z,14.2
2023-01-01T05:50:40.793Z,14.2
2023-01-01T05:51:44.585Z,14.2
2023-01-01T05:52:47.408Z,14.2
2023-01-01T05:53:50.451Z,14.3
2023-01-01T05:54:54.129Z,14.2
2023-01-01T05:55:56.853Z,14.3
2023-01-01T05:57:00.289Z,14.3
2023-01-01T05:58:03.365Z,14.3
2023-01-01T05:59:06.338Z,14.3
2023-01-01T06:00:10.387Z,14.3
2023-01-01T06:01:13.459Z,14.3
2023-01-01T06:02:17.097Z,14.3
2023-01-01T06:03:19.351Z,14.3
2023-01-01T06:04:21.782Z,14.3
2023-01-01T06:05:24.234Z,14.3
2023-01-01T06:06:27.079Z,14.3
2023-01-01T06:07:30.884Z,14.3
2023-01-01T06:08:34.436Z,14.3
2023-01-01T06:09:37.575Z,14.4
2023-01-01T06:10:41.035Z,14.4
2023-01-01T06:11:43.562Z,14.4
2023-01-01T06:12:46.362Z,14.4
2023-01-01T06:13:49.730Z,14.4
2023-01-01T06:14:52.526Z,14.4
2023-01-01T06:15:55.058Z,14.5
2023-01-01T06:16:58.417Z,14.5
2023-01-01T06:18:01.415Z,14.4
2023-01-01T06:19:04.448Z,14.5
2023-01-01T06:20:07.590Z,14.5
2023-01-01T06:21:11.597Z,14.6
2023-01-01T06:22:15.066Z,14.6
2023-01-01T06:23:19.176Z,14.6
2023-01-01T06:24:22.319Z,14.6
2023-01-01T06:25:24.771Z,14.6
2023-01-01T06:26:27.859Z,14.5
2023-01-01T06:27:30.852Z,14.6
2023-01-01T06:28:33.840Z,14.6
2023-01-01T06:29:37.008Z,14.6
2023-01-01T06:30:40.305Z,14.6
2023-01-01T06:31:43.743Z,14.5
2023-01-01T06:32:46.819Z,14.5
2023-01-01T06:33:49.427Z,14.6
2023-01-01T06:34:52.164Z,14.5
2023-01-01T06:35:55.497Z,14.5
2023-01-01T06:37:08.075Z,14.5
2023-01-01T06:38:11.146Z,14.5
2023-01-01T06:39:15.251Z,14.5
2023-01-01T06:40:18.317Z,14.5
2023-01-01T06:41:21.965Z,14.5
2023-01-01T06:42:34.885Z,14.6
2023-01-01T06:43:38.187Z,14.6
2023-01-01T06:44:41.938Z,14.6
2023-01-01T06:45:45.110Z,14.6
2023-01-01T06:46:48.539Z,14.6
2023-01-01T06:47:51.415Z,14.6
2023-01-01T06:48:54.778Z,14.6
2023-01-01T06:49:58.251Z,14.6
2023-01-01T06:51:00.693Z,14.6
2023-01-01T06:52:02.908Z,14.6
2023-01-01T06:53:05.975Z,14.6
2023-01-01T06:54:09.065Z,14.6
2023-01-01T06:55:12.875Z,14.6
2023-01-01T06:56:16.597Z,14.6
2023-01-01T06:57:19.782Z,14.6
2023-01-01T06:58:21.946Z,14.6
2023-01-01T06:59:24.664Z,14.6
2023-01-01T07:00:28.387Z,14.6
2023-01-01T07:01:31.908Z,14.6
2023-01-01T07:02:36.016Z,14.7
2023-01-01T07:03:39.375Z,14.6
2023-01-01T07:04:42.579Z,14.6
2023-01-01T07:05:45.365Z,14.6
2023-01-01T07:06:48.574Z,14.6
2023-01-01T07:07:51.363Z,14.6
2023-01-01T07:08:54.363Z,14.6
2023-01-01T07:09:57.467Z,14.6
2023-01-01T07:11:01.407Z,14.6
2023-01-01T07:12:04.487Z,14.6
2023-01-01T07:13:07.859Z,14.6
2023-01-01T07:14:10.955Z,14.6
2023-01-01T07:15:13.495Z,14.6
2023-01-01T07:16:17.288Z,14.6
2023-01-01T07:17:21.181Z,14.6
2023-01-01T07:18:24.238Z,14.6
2023-01-01T07:19:27.396Z,14.6
2023-01-01T07:20:31.683Z,14.6
2023-01-01T07:21:35.458Z,14.7
2023-01-01T07:22:37.725Z,14.6
2023-01-01T07:23:40.792Z,14.6
2023-01-01T07:24:44.200Z,14.6
2023-01-01T07:25:47.703Z,14.6
2023-01-01T07:26:51.553Z,14.6
2023-01-01T07:27:54.880Z,14.6
2023-01-01T07:29:09.685Z,14.6
2023-01-01T07:30:12.974Z,14.6
2023-01-01T07:31:16.562Z,14.6
2023-01-01T07:32:19.403Z,14.6
2023-01-01T07:33:21.928Z,14.6
2023-01-01T07:34:25.586Z,14.6
2023-01-01T07:35:28.296Z,14.6
2023-01-01T07:36:31.331Z,14.5
2023-01-01T07:37:34.733Z,14.5
2023-01-01T07:38:37.045Z,14.5
2023-01-01T07:39:40.144Z,14.5
2023-01-01T07:40:43.983Z,14.5
2023-01-01T07:41:47.446Z,14.5
2023-01-01T07:42:51.001Z,14.5
2023-01-01T07:43:54.140Z,14.4
2023-01-01T07:44:57.161Z,14.4
2023-01-01T07:46:00.449Z,14.4
2023-01-01T07:47:03.663Z,14.4
2023-01-01T07:48:06.538Z,14.4
2023-01-01T07:49:09.554Z,14.4
2023-01-01T07:50:12.641Z,14.5
2023-01-01T07:51:15.727Z,14.4
2023-01-01T07:52:18.901Z,14.4
2023-01-01T07:53:22.931Z,14.4
2023-01-01T07:54:25.531Z,14.4
2023-01-01T07:55:28.669Z,14.4
2023-01-01T07:56:31.382Z,14.4
2023-01-01T07:57:34.463Z,14.3
2023-01-01T07:58:38.628Z,14.3
2023-01-01T07:59:41.771Z,14.3
2023-01-01T08:00:45.139Z,14.3
2023-01-01T08:01:49.217Z,14.3
2023-01-01T08:02:53.809Z,14.3
2023-01-01T08:03:57.711Z,14.3
2023-01-01T08:05:00.780Z,14.3
2023-01-01T08:06:03.315Z,14.3
2023-01-01T08:07:05.586Z,14.3
2023-01-01T08:08:09.215Z,14.3
2023-01-01T08:09:12.859Z,14.4
2023-01-01T08:10:16.263Z,14.3
2023-01-01T08:11:20.246Z,14.3
2023-01-01T08:12:22.744Z,14.4
2023-01-01T08:13:26.104Z,14.4
2023-01-01T08:14:29.970Z,14.4
2023-01-01T08:15:33.323Z,14.4
2023-01-01T08:16:35.891Z,14.4
2023-01-01T08:17:48.583Z,14.4
2023-01-01T08:18:51.611Z,14.4
2023-01-01T08:19:55.051Z,14.4
2023-01-01T08:20:57.852Z,14.4
2023-01-01T08:22:00.924Z,14.3
2023-01-01T08:23:09.372Z,14.4
2023-01-01T08:24:12.112Z,14.4
2023-01-01T08:25:15.525Z,14.4
2023-01-01T08:26:18.085Z,14.4
2023-01-01T08:27:20.325Z,14.4
2023-01-01T08:28:24.004Z,14.4
2023-01-01T08:29:27.511Z,14.4
2023-01-01T08:30:31.084Z,14.4
2023-01-01T08:31:34.551Z,14.5
2023-01-01T08:32:38.325Z,14.4
2023-01-01T08:33:41.782Z,14.4
2023-01-01T08:34:44.655Z,14.4
2023-01-01T08:35:55.825Z,14.4
2023-01-01T08:36:58.839Z,14.4
2023-01-01T08:38:02.339Z,14.4
2023-01-01T08:39:05.057Z,14.5
2023-01-01T08:40:07.514Z,14.4
2023-01-01T08:41:10.815Z,14.4
2023-01-01T08:42:14.454Z,14.4
2023-01-01T08:43:17.736Z,14.4
2023-01-01T08:44:20.719Z,14.4
2023-01-01T08:45:24.237Z,14.4
2023-01-01T08:46:28.242Z,14.5
2023-01-01T08:47:31.001Z,14.4
2023-01-01T08:48:33.471Z,14.4
2023-01-01T08:49:37.154Z,14.4
2023-01-01T08:50:39.861Z,14.5
2023-01-01T08:51:43.036Z,14.5
2023-01-01T08:52:45.779Z,14.5
2023-01-01T08:53:52.714Z,14.5
2023-01-01T08:54:55.344Z,14.5
2023-01-01T08:55:58.754Z,14.5
2023-01-01T08:57:01.637Z,14.5
2023-01-01T08:58:04.972Z,14.5
2023-01-01T08:59:07.405Z,14.5
2023-01-01T09:00:11.143Z,14.5
2023-01-01T09:01:14.483Z,14.5
2023-01-01T09:02:19.650Z,14.5
2023-01-01T09:03:24.262Z,14.5
2023-01-01T09:04:27.075Z,14.6
2023-01-01T09:05:30.197Z,14.5
2023-01-01T09:06:33.020Z,14.5
2023-01-01T09:07:36.071Z,14.6
2023-01-01T09:08:39.504Z,14.5
2023-01-01T09:09:42.311Z,14.5
2023-01-01T09:10:45.587Z,14.5
2023-01-01T09:11:48.634Z,14.5
2023-01-01T09:12:51.632Z,14.5
2023-01-01T09:13:55.355Z,14.5
2023-01-01T09:14:58.801Z,14.5
2023-01-01T09:16:02.388Z,14.6
2023-01-01T09:17:06.004Z,14.5
2023-01-01T09:18:09.503Z,14.6
2023-01-01T09:19:12.324Z,14.6
2023-01-01T09:20:15.353Z,14.6
2023-01-01T09:21:18.141Z,14.6
2023-01-01T09:22:21.142Z,14.6
2023-01-01T09:23:24.444Z,14.6
2023-01-01T09:24:27.434Z,14.5
2023-01-01T09:25:31.242Z,14.5
2023-01-01T09:26:34.302Z,14.5
2023-01-01T09:27:37.006Z,14.5
2023-01-01T09:28:40.726Z,14.5
2023-01-01T09:29:43.511Z,14.6
2023-01-01T09:30:46.659Z,14.6
2023-01-01T09:31:51.042Z,14.5
2023-01-01T09:32:54.837Z,14.5
2023-01-01T09:33:58.883Z,14.5
2023-01-01T09:35:01.677Z,14.5
2023-01-01T09:36:04.675Z,14.5
2023-01-01T09:37:08.028Z,14.4
2023-01-01T09:38:10.851Z,14.4
2023-01-01T09:39:13.975Z,14.4
2023-01-01T09:40:17.051Z,14.4
2023-01-01T09:41:20.366Z,14.4
2023-01-01T09:42:23.534Z,14.4
2023-01-01T09:43:26.870Z,14.4
2023-01-01T09:44:29.919Z,14.4
2023-01-01T09:45:32.881Z,14.4
2023-01-01T09:46:36.314Z,14.3
2023-01-01T09:47:39.435Z,14.4
2023-01-01T09:48:42.859Z,14.4
2023-01-01T09:49:46.364Z,14.4
2023-01-01T09:50:48.880Z,14.4
2023-01-01T09:52:00.055Z,14.4
2023-01-01T09:53:03.652Z,14.4
2023-01-01T09:54:06.923Z,14.4
2023-01-01T09:55:09.946Z,14.4
2023-01-01T09:56:12.987Z,14.3
2023-01-01T09:57:21.744Z,14.4
2023-01-01T09:58:24.506Z,14.3
2023-01-01T09:59:27.976Z,14.3
2023-01-01T10:00:31.501Z,14.3
2023-01-01T10:01:35.019Z,14.3
2023-01-01T10:02:38.310Z,14.4
2023-01-01T10:03:42.042Z,14.4
2023-01-01T10:04:45.982Z,14.4
2023-01-01T10:05:49.475Z,14.4
2023-01-01T10:06:52.902Z,14.4
2023-01-01T10:07:55.066Z,14.4
2023-01-01T10:08:58.203Z,14.4
2023-01-01T10:10:01.297Z,14.4
2023-01-01T10:11:04.422Z,14.4
2023-01-01T10:12:07.134Z,14.4
2023-01-01T10:13:09.934Z,14.4
2023-01-01T10:14:11.520Z,14.4
2023-01-01T10:15:13.958Z,14.4
2023-01-01T10:16:26.865Z,14.5
2023-01-01T10:17:30.370Z,14.5
2023-01-01T10:18:33.920Z,14.5
2023-01-01T10:19:37.252Z,14.5
2023-01-01T10:20:40.623Z,14.4
2023-01-01T10:21:48.879Z,14.4
2023-01-01T10:22:52.137Z,14.4
2023-01-01T10:23:55.218Z,14.5
2023-01-01T10:24:58.373Z,14.5
2023-01-01T10:26:00.794Z,14.4
2023-01-01T10:27:03.503Z,14.4
2023-01-01T10:28:06.242Z,14.4
2023-01-01T10:29:08.428Z,14.4
2023-01-01T10:30:10.849Z,14.4
2023-01-01T10:31:14.186Z,14.4
2023-01-01T10:32:17.244Z,14.4
2023-01-01T10:33:20.423Z,14.4
2023-01-01T10:34:23.619Z,14.4
2023-01-01T10:35:32.014Z,14.3
2023-01-01T10:36:35.366Z,14.4
2023-01-01T10:37:39.147Z,14.4
2023-01-01T10:38:41.601Z,14.3
2023-01-01T10:39:44.878Z,14.3
2023-01-01T10:40:48.228Z,14.3
2023-01-01T10:41:51.363Z,14.3
2023-01-01T10:42:54.292Z,14.3
2023-01-01T10:43:57.215Z,14.3
2023-01-01T10:45:00.277Z,14.3
2023-01-01T10:46:03.969Z,14.3
2023-01-01T10:47:07.351Z,14.3
2023-01-01T10:48:10.452Z,14.3
2023-01-01T10:49:14.210Z,14.3
2023-01-01T10:50:17.286Z,14.3
2023-01-01T10:51:20.281Z,14.3
2023-01-01T10:52:23.364Z,14.3
2023-01-01T10:53:26.916Z,14.3
2023-01-01T10:54:33.996Z,14.3
2023-01-01T10:55:36.496Z,14.3
2023-01-01T10:56:39.907Z,14.3
2023-01-01T10:57:43.113Z,14.3
2023-01-01T10:58:46.135Z,14.4
2023-01-01T10:59:55.990Z,14.3
2023-01-01T11:00:59.336Z,14.3
2023-01-01T11:02:03.770Z,14.3
2023-01-01T11:03:06.834Z,14.3
2023-01-01T11:04:09.703Z,14.3
2023-01-01T11:05:23.250Z,14.3
2023-01-01T11:06:26.620Z,14.3
2023-01-01T11:07:29.791Z,14.3
2023-01-01T11:08:33.654Z,14.3
2023-01-01T11:09:37.125Z,14.3
2023-01-01T11:10:40.425Z,14.3
2023-01-01T11:11:43.138Z,14.3
2023-01-01T11:13:15.921Z,14.3
2023-01-01T11:14:19.567Z,14.3
2023-01-01T11:15:22.996Z,14.3
2023-01-01T11:16:26.411Z,14.3
2023-01-01T11:17:30.582Z,14.3
2023-01-01T11:18:33.620Z,14.3
2023-01-01T11:19:36.013Z,14.3
2023-01-01T11:20:39.091Z,14.3
2023-01-01T11:21:42.369Z,14.3
2023-01-01T11:22:45.800Z,14.3
2023-01-01T11:23:49.790Z,14.3
2023-01-01T11:24:52.780Z,14.3
2023-01-01T11:25:55.567Z,14.2
2023-01-01T11:26:58.897Z,14.2
2023-01-01T11:28:01.873Z,14.2
2023-01-01T11:29:04.869Z,14.3
2023-01-01T11:30:07.388Z,14.3
2023-01-01T11:31:10.856Z,14.2
2023-01-01T11:32:14.105Z,14.2
2023-01-01T11:33:17.544Z,14.2
2023-01-01T11:34:20.541Z,14.2
2023-01-01T11:35:23.252Z,14.2
2023-01-01T11:36:26.330Z,14.3
2023-01-01T11:37:29.418Z,14.3
2023-01-01T11:38:32.578Z,14.3
2023-01-01T11:39:36.246Z,14.2
2023-01-01T11:40:39.380Z,14.2
2023-01-01T11:41:42.769Z,14.1
2023-01-01T11:42:45.463Z,14.2
2023-01-01T11:43:47.904Z,14.3
2023-01-01T11:44:51.028Z,14.2
2023-01-01T11:45:54.259Z,14.3
2023-01-01T11:46:56.799Z,14.3
2023-01-01T11:47:59.285Z,14.4
2023-01-01T11:49:02.550Z,14.5
2023-01-01T11:50:06.015Z,14.5
2023-01-01T11:51:08.783Z,14.4
2023-01-01T11:52:12.123Z,14.4
2023-01-01T11:53:14.971Z,14.3
2023-01-01T11:54:18.798Z,14.2
2023-01-01T11:55:22.935Z,14.2
2023-01-01T11:56:25.463Z,14.2
2023-01-01T11:57:28.491Z,14.2
2023-01-01T11:58:31.921Z,14.2
2023-01-01T11:59:35.258Z,14.3
2023-01-01T12:00:37.717Z,14.3
2023-01-01T12:01:41.391Z,14.3
2023-01-01T12:02:44.986Z,14.2
2023-01-01T12:03:48.534Z,14.2
2023-01-01T12:04:52.372Z,14.2
2023-01-01T12:05:55.266Z,14.3
2023-01-01T12:06:58.611Z,14.2
2023-01-01T12:08:01.398Z,14.2
2023-01-01T12:09:04.826Z,14.3
2023-01-01T12:10:08.267Z,14.3
2023-01-01T12:11:12.440Z,14.3
2023-01-01T12:12:15.504Z,14.3
2023-01-01T12:13:18.966Z,14.2
2023-01-01T12:14:22.058Z,14.2
2023-01-01T12:15:25.065Z,14.2
2023-01-01T12:16:28.582Z,14.2
2023-01-01T12:17:31.654Z,14.2
2023-01-01T12:18:34.651Z,14.1
2023-01-01T12:19:37.107Z,14.1
2023-01-01T12:20:40.496Z,14.1
2023-01-01T12:21:53.907Z,14.1
2023-01-01T12:22:56.462Z,14.1
2023-01-01T12:23:59.470Z,14
2023-01-01T12:25:01.676Z,14
2023-01-01T12:26:05.128Z,14.1
2023-01-01T12:27:13.079Z,14.1
2023-01-01T12:28:15.583Z,14.1
2023-01-01T12:29:18.060Z,14.1
2023-01-01T12:30:20.839Z,14.1
2023-01-01T12:31:24.928Z,14.1
2023-01-01T12:32:28.539Z,14.1
2023-01-01T12:33:31.779Z,14.1
2023-01-01T12:34:34.912Z,14.1
2023-01-01T12:35:37.161Z,14.1
2023-01-01T12:36:40.831Z,14
2023-01-01T12:37:43.859Z,14
2023-01-01T12:38:46.719Z,14
2023-01-01T12:39:49.737Z,14
2023-01-01T12:40:52.732Z,13.9
2023-01-01T12:41:55.535Z,14
2023-01-01T12:42:59.602Z,14
2023-01-01T12:44:02.322Z,13.9
2023-01-01T12:45:05.447Z,13.9
2023-01-01T12:46:08.688Z,14
2023-01-01T12:47:12.111Z,14
2023-01-01T12:48:15.213Z,13.9
2023-01-01T12:49:19.018Z,13.9
2023-01-01T12:50:22.077Z,13.9
2023-01-01T12:51:25.149Z,13.9
2023-01-01T12:52:28.142Z,13.9
2023-01-01T12:53:31.244Z,14
2023-01-01T12:54:34.247Z,14
2023-01-01T12:55:37.084Z,14
2023-01-01T12:56:40.711Z,13.9
2023-01-01T12:57:44.135Z,14
2023-01-01T12:58:48.307Z,13.9
2023-01-01T12:59:51.021Z,13.9
2023-01-01T13:00:53.855Z,13.9
2023-01-01T13:01:57.480Z,13.9
2023-01-01T13:03:01.833Z,13.9
2023-01-01T13:04:05.371Z,13.9
2023-01-01T13:05:08.357Z,13.9
2023-01-01T13:06:11.820Z,13.9
2023-01-01T13:07:14.264Z,13.9
2023-01-01T13:08:17.537Z,13.8
2023-01-01T13:09:20.614Z,13.8
2023-01-01T13:10:23.434Z,13.8
2023-01-01T13:11:26.873Z,13.8
2023-01-01T13:12:30.323Z,13.8
2023-01-01T13:13:33.377Z,13.8
2023-01-01T13:14:37.194Z,13.7
2023-01-01T13:15:40.646Z,13.6
2023-01-01T13:16:43.516Z,13.6
2023-01-01T13:17:46.296Z,13.7
2023-01-01T13:18:49.072Z,13.6
2023-01-01T13:19:51.870Z,13.6
2023-01-01T13:20:55.142Z,13.6
2023-01-01T13:21:58.204Z,13.6
2023-01-01T13:23:01.180Z,13.6
2023-01-01T13:24:04.754Z,13.6
2023-01-01T13:25:08.109Z,13.5
2023-01-01T13:26:11.739Z,13.5
2023-01-01T13:27:14.267Z,13.4
2023-01-01T13:28:17.543Z,13.4
2023-01-01T13:29:20.337Z,13.4
2023-01-01T13:30:23.951Z,13.4
2023-01-01T13:31:27.207Z,13.4
2023-01-01T13:32:30.366Z,13.4
2023-01-01T13:33:33.752Z,13.4
2023-01-01T13:34:36.950Z,13.4
2023-01-01T13:35:40.427Z,13.4
2023-01-01T13:36:44.432Z,13.3
2023-01-01T13:37:47.610Z,13.4
2023-01-01T13:38:51.061Z,13.4
2023-01-01T13:39:54.480Z,13.4
2023-01-01T13:40:56.922Z,13.3
2023-01-01T13:42:00.298Z,13.3
2023-01-01T13:43:06.264Z,13.3
2023-01-01T13:44:08.780Z,13.3
2023-01-01T13:45:12.415Z,13.2
2023-01-01T13:46:16.817Z,13.1
2023-01-01T13:47:19.371Z,13.1
2023-01-01T13:48:22.236Z,13.1
2023-01-01T13:49:25.636Z,13.1
2023-01-01T13:50:29.333Z,13.1
2023-01-01T13:52:09.286Z,13.1
2023-01-01T13:53:12.041Z,13.1
2023-01-01T13:54:15.424Z,13.1
2023-01-01T13:55:17.912Z,13.1
2023-01-01T13:56:20.709Z,13.1
2023-01-01T13:57:23.403Z,13.1
2023-01-01T13:58:26.410Z,13.1
2023-01-01T13:59:30.129Z,13.1
2023-01-01T14:00:34.054Z,13.1
2023-01-01T14:01:39.418Z,13
2023-01-01T14:02:43.774Z,13
2023-01-01T14:03:46.535Z,13
2023-01-01T14:04:49.338Z,13
2023-01-01T14:05:52.065Z,12.9
2023-01-01T14:06:55.795Z,12.9
2023-01-01T14:07:59.443Z,12.9
2023-01-01T14:09:02.832Z,12.9
2023-01-01T14:10:06.193Z,12.9
2023-01-01T14:11:10.179Z,12.8